createdAt,value
2018-12-21T00:01:56.406Z,6.30
2018-12-21T00:04:23.839Z,6.30
2018-12-21T00:06:51.307Z,6.30
2018-12-21T00:09:18.762Z,6.40
2018-12-21T00:11:46.233Z,6.30
2018-12-21T00:14:13.675Z,6.40
2018-12-21T00:16:41.175Z,6.40
2018-12-21T00:19:08.626Z,6.40
2018-12-21T00:21:36.087Z,6.40
2018-12-21T00:24:03.583Z,6.40
2018-12-21T00:26:31.059Z,6.40
2018-12-21T00:28:58.524Z,6.50
2018-12-21T00:31:31.562Z,6.50
2018-12-21T00:34:04.735Z,6.50
2018-12-21T00:36:37.952Z,6.50
2018-12-21T00:39:11.583Z,6.50
2018-12-21T00:41:38.771Z,6.50
2018-12-21T00:44:08.220Z,6.40
2018-12-21T00:46:37.616Z,6.40
2018-12-21T00:49:05.105Z,6.50
2018-12-21T00:51:32.614Z,6.40
2018-12-21T00:54:00.112Z,6.50
2018-12-21T00:56:27.660Z,6.50
2018-12-21T00:58:55.227Z,6.40
2018-12-21T01:01:22.729Z,6.40
2018-12-21T01:03:50.165Z,6.40
2018-12-21T01:06:17.619Z,6.40
2018-12-21T01:08:45.096Z,6.40
2018-12-21T01:11:12.563Z,6.40
2018-12-21T01:13:40.038Z,6.40
2018-12-21T01:16:07.489Z,6.50
2018-12-21T01:18:34.989Z,6.50
2018-12-21T01:21:02.489Z,6.50
2018-12-21T01:23:29.958Z,6.50
2018-12-21T01:25:57.407Z,6.50
2018-12-21T01:28:24.866Z,6.50
2018-12-21T01:30:52.323Z,6.50
2018-12-21T01:33:19.800Z,6.40
2018-12-21T01:35:47.252Z,6.50
2018-12-21T01:38:14.706Z,6.50
2018-12-21T01:40:42.162Z,6.40
2018-12-21T01:43:09.618Z,6.40
2018-12-21T01:45:37.090Z,6.50
2018-12-21T01:48:04.594Z,6.40
2018-12-21T01:50:32.038Z,6.50
2018-12-21T01:52:59.528Z,6.50
2018-12-21T01:55:27.039Z,6.40
2018-12-21T01:57:54.509Z,6.40
2018-12-21T02:00:21.974Z,6.40
2018-12-21T02:02:49.436Z,6.40
2018-12-21T02:05:16.945Z,6.40
2018-12-21T02:07:44.408Z,6.40
2018-12-21T02:10:11.925Z,6.40
2018-12-21T02:12:39.366Z,6.40
2018-12-21T02:15:06.926Z,6.40
2018-12-21T02:17:34.395Z,6.40
2018-12-21T02:20:01.895Z,6.40
2018-12-21T02:22:29.348Z,6.40
2018-12-21T02:24:56.960Z,6.40
2018-12-21T02:27:24.407Z,6.50
2018-12-21T02:29:51.871Z,6.50
2018-12-21T02:32:19.317Z,6.50
2018-12-21T02:34:46.829Z,6.50
2018-12-21T02:37:14.321Z,6.50
2018-12-21T02:39:41.779Z,6.50
2018-12-21T02:42:09.256Z,6.50
2018-12-21T02:44:36.717Z,6.50
2018-12-21T02:47:04.255Z,6.40
2018-12-21T02:49:31.761Z,6.40
2018-12-21T02:52:05.251Z,6.40
2018-12-21T02:54:28.657Z,6.40
2018-12-21T02:56:56.111Z,6.30
2018-12-21T02:59:23.566Z,6.30
2018-12-21T03:01:51.024Z,6.30
2018-12-21T03:04:18.477Z,6.40
2018-12-21T03:06:45.943Z,6.40
2018-12-21T03:09:13.388Z,6.30
2018-12-21T03:11:40.855Z,6.30
2018-12-21T03:14:08.403Z,6.30
2018-12-21T03:16:35.886Z,6.30
2018-12-21T03:19:03.336Z,6.30
2018-12-21T03:21:30.803Z,6.30
2018-12-21T03:23:58.262Z,6.40
2018-12-21T03:26:25.728Z,6.40
2018-12-21T03:28:53.172Z,6.40
2018-12-21T03:31:20.624Z,6.40
2018-12-21T03:33:48.083Z,6.40
2018-12-21T03:36:15.539Z,6.40
2018-12-21T03:38:42.971Z,6.40
2018-12-21T03:41:10.434Z,6.40
2018-12-21T03:43:37.886Z,6.40
2018-12-21T03:46:05.422Z,6.40
2018-12-21T03:48:32.881Z,6.30
2018-12-21T03:51:00.347Z,6.40
2018-12-21T03:53:27.798Z,6.40
2018-12-21T03:55:55.249Z,6.40
2018-12-21T03:58:22.697Z,6.40
2018-12-21T04:00:50.162Z,6.40
2018-12-21T04:03:17.605Z,6.40
2018-12-21T04:05:45.061Z,6.40
2018-12-21T04:08:12.526Z,6.40
2018-12-21T04:10:40.098Z,6.40
2018-12-21T04:13:07.560Z,6.40
2018-12-21T04:15:35.017Z,6.40
2018-12-21T04:18:02.499Z,6.40
2018-12-21T04:20:30.022Z,6.40
2018-12-21T04:22:57.513Z,6.30
2018-12-21T04:25:25.000Z,6.30
2018-12-21T04:27:52.502Z,6.40
2018-12-21T04:30:19.960Z,6.30
2018-12-21T04:32:47.414Z,6.30
2018-12-21T04:35:14.886Z,6.30
2018-12-21T04:37:42.346Z,6.40
2018-12-21T04:40:09.806Z,6.30
2018-12-21T04:42:37.344Z,6.30
2018-12-21T04:45:05.475Z,6.30
2018-12-21T04:47:32.930Z,6.30
2018-12-21T04:50:00.386Z,6.20
2018-12-21T04:52:27.825Z,6.20
2018-12-21T04:54:55.293Z,6.20
2018-12-21T04:57:22.811Z,6.20
2018-12-21T04:59:50.249Z,6.30
2018-12-21T05:02:17.798Z,6.30
2018-12-21T05:04:45.280Z,6.30
2018-12-21T05:07:12.985Z,6.40
2018-12-21T05:09:40.621Z,6.40
2018-12-21T05:12:08.057Z,6.30
2018-12-21T05:14:35.531Z,6.40
2018-12-21T05:17:02.980Z,6.40
2018-12-21T05:19:30.503Z,6.40
2018-12-21T05:21:57.972Z,6.30
2018-12-21T05:24:25.442Z,6.30
2018-12-21T05:26:52.885Z,6.30
2018-12-21T05:29:20.344Z,6.40
2018-12-21T05:31:47.835Z,6.50
2018-12-21T05:34:15.288Z,6.40
2018-12-21T05:36:42.729Z,6.40
2018-12-21T05:39:10.174Z,6.40
2018-12-21T05:41:37.641Z,6.40
2018-12-21T05:44:05.174Z,6.40
2018-12-21T05:46:32.641Z,6.50
2018-12-21T05:49:00.101Z,6.60
2018-12-21T05:51:27.592Z,6.50
2018-12-21T05:53:55.044Z,6.50
2018-12-21T05:56:22.487Z,6.50
2018-12-21T05:58:49.940Z,6.60
2018-12-21T06:01:17.394Z,6.60
2018-12-21T06:03:44.907Z,6.60
2018-12-21T06:06:12.351Z,6.60
2018-12-21T06:08:39.820Z,6.50
2018-12-21T06:11:07.261Z,6.50
2018-12-21T06:13:34.715Z,6.50
2018-12-21T06:16:02.182Z,6.60
2018-12-21T06:18:29.629Z,6.60
2018-12-21T06:20:57.083Z,6.60
2018-12-21T06:23:24.533Z,6.60
2018-12-21T06:25:51.990Z,6.70
2018-12-21T06:28:19.430Z,6.60
2018-12-21T06:30:46.892Z,6.70
2018-12-21T06:33:14.333Z,6.60
2018-12-21T06:35:41.789Z,6.60
2018-12-21T06:38:09.245Z,6.60
2018-12-21T06:40:36.740Z,6.60
2018-12-21T06:43:04.182Z,6.60
2018-12-21T06:45:31.985Z,6.60
2018-12-21T06:47:59.498Z,6.50
2018-12-21T06:50:26.990Z,6.50
2018-12-21T06:52:54.425Z,6.60
2018-12-21T06:55:21.885Z,6.60
2018-12-21T06:57:50.382Z,6.60
2018-12-21T07:00:17.838Z,6.60
2018-12-21T07:02:45.289Z,6.60
2018-12-21T07:05:12.772Z,6.60
2018-12-21T07:07:40.223Z,6.60
2018-12-21T07:10:09.365Z,6.60
2018-12-21T07:12:36.809Z,6.60
2018-12-21T07:15:05.579Z,6.60
2018-12-21T07:17:33.027Z,6.60
2018-12-21T07:20:01.455Z,6.60
2018-12-21T07:22:28.917Z,6.50
2018-12-21T07:24:56.399Z,6.50
2018-12-21T07:27:23.897Z,6.60
2018-12-21T07:29:51.344Z,6.50
2018-12-21T07:32:18.806Z,6.60
2018-12-21T07:34:46.258Z,6.50
2018-12-21T07:37:13.712Z,6.50
2018-12-21T07:39:41.150Z,6.50
2018-12-21T07:42:08.601Z,6.50
2018-12-21T07:44:36.050Z,6.50
2018-12-21T07:47:03.576Z,6.60
2018-12-21T07:49:31.085Z,6.50
2018-12-21T07:51:58.542Z,6.50
2018-12-21T07:54:25.982Z,6.60
2018-12-21T07:56:53.486Z,6.60
2018-12-21T07:59:20.936Z,6.60
2018-12-21T08:01:48.401Z,6.60
2018-12-21T08:04:15.854Z,6.70
2018-12-21T08:06:43.305Z,6.70
2018-12-21T08:09:10.755Z,6.70
2018-12-21T08:11:38.223Z,6.70
2018-12-21T08:14:05.664Z,6.70
2018-12-21T08:16:33.104Z,6.70
2018-12-21T08:19:00.562Z,6.80
2018-12-21T08:21:28.018Z,6.70
2018-12-21T08:23:55.570Z,6.70
2018-12-21T08:26:23.009Z,6.80
2018-12-21T08:28:50.463Z,6.80
2018-12-21T08:31:17.903Z,6.80
2018-12-21T08:33:45.377Z,6.90
2018-12-21T08:36:12.877Z,6.80
2018-12-21T08:38:40.366Z,6.80
2018-12-21T08:41:07.810Z,6.90
2018-12-21T08:43:35.252Z,6.90
2018-12-21T08:46:02.752Z,6.90
2018-12-21T08:48:30.214Z,6.90
2018-12-21T08:50:57.660Z,6.90
2018-12-21T08:53:25.124Z,6.90
2018-12-21T08:55:52.577Z,6.90
2018-12-21T08:58:20.031Z,6.90
2018-12-21T09:00:47.478Z,7.00
2018-12-21T09:03:14.938Z,6.90
2018-12-21T09:05:42.387Z,6.90
2018-12-21T09:08:09.841Z,6.90
2018-12-21T09:10:37.312Z,6.90
2018-12-21T09:13:04.759Z,6.90
2018-12-21T09:15:32.217Z,6.90
2018-12-21T09:17:59.676Z,7.00
2018-12-21T09:20:27.125Z,7.00
2018-12-21T09:22:54.602Z,7.00
2018-12-21T09:25:22.120Z,7.00
2018-12-21T09:27:49.702Z,7.00
2018-12-21T09:30:17.169Z,7.00
2018-12-21T09:32:44.613Z,7.00
2018-12-21T09:35:12.076Z,7.00
2018-12-21T09:37:39.563Z,7.00
2018-12-21T09:40:08.525Z,6.90
2018-12-21T09:42:35.981Z,6.90
2018-12-21T09:45:03.517Z,7.00
2018-12-21T09:47:30.968Z,6.90
2018-12-21T09:49:58.436Z,6.90
2018-12-21T09:52:25.881Z,6.90
2018-12-21T09:54:53.351Z,6.90
2018-12-21T09:57:20.797Z,6.90
2018-12-21T09:59:48.249Z,7.00
2018-12-21T10:02:15.749Z,7.00
2018-12-21T10:04:43.210Z,7.00
2018-12-21T10:07:10.637Z,7.00
2018-12-21T10:09:38.113Z,7.00
2018-12-21T10:12:05.544Z,7.10
2018-12-21T10:14:33.014Z,7.10
2018-12-21T10:17:00.455Z,7.20
2018-12-21T10:19:27.905Z,7.20
2018-12-21T10:21:55.459Z,7.10
2018-12-21T10:24:23.132Z,7.20
2018-12-21T10:26:50.573Z,7.20
2018-12-21T10:29:18.043Z,7.20
2018-12-21T10:31:45.505Z,7.20
2018-12-21T10:34:12.952Z,7.30
2018-12-21T10:36:40.402Z,7.30
2018-12-21T10:39:07.860Z,7.30
2018-12-21T10:41:35.391Z,7.30
2018-12-21T10:44:02.913Z,7.30
2018-12-21T10:46:30.367Z,7.30
2018-12-21T10:48:57.828Z,7.30
2018-12-21T10:51:25.272Z,7.30
2018-12-21T10:53:52.770Z,7.40
2018-12-21T10:56:20.217Z,7.40
2018-12-21T10:58:49.803Z,7.40
2018-12-21T11:01:17.162Z,7.40
2018-12-21T11:03:44.602Z,7.40
2018-12-21T11:06:12.053Z,7.40
2018-12-21T11:08:39.516Z,7.40
2018-12-21T11:11:06.976Z,7.40
2018-12-21T11:13:34.426Z,7.40
2018-12-21T11:16:01.917Z,7.40
2018-12-21T11:18:29.371Z,7.40
2018-12-21T11:20:56.985Z,7.50
2018-12-21T11:23:24.444Z,7.60
2018-12-21T11:25:52.002Z,7.60
2018-12-21T11:28:25.287Z,7.60
2018-12-21T11:30:48.888Z,7.60
2018-12-21T11:33:16.330Z,7.50
2018-12-21T11:35:43.782Z,7.60
2018-12-21T11:38:11.226Z,7.60
2018-12-21T11:40:38.687Z,7.60
2018-12-21T11:43:06.173Z,7.70
2018-12-21T11:45:33.627Z,7.70
2018-12-21T11:48:01.077Z,7.70
2018-12-21T11:50:28.572Z,7.70
2018-12-21T11:52:56.059Z,7.80
2018-12-21T11:55:23.580Z,7.80
2018-12-21T11:57:51.046Z,7.90
2018-12-21T12:00:18.498Z,7.90
2018-12-21T12:02:46.063Z,7.90
2018-12-21T12:05:13.505Z,8.00
2018-12-21T12:07:40.949Z,8.00
2018-12-21T12:10:08.444Z,8.10
2018-12-21T12:12:35.892Z,8.10
2018-12-21T12:15:05.046Z,8.10
2018-12-21T12:17:32.506Z,8.20
2018-12-21T12:20:00.272Z,8.20
2018-12-21T12:22:27.866Z,8.20
2018-12-21T12:24:55.477Z,8.30
2018-12-21T12:27:23.065Z,8.40
2018-12-21T12:29:51.313Z,8.40
2018-12-21T12:32:18.885Z,8.40
2018-12-21T12:34:46.328Z,8.40
2018-12-21T12:37:13.786Z,8.50
2018-12-21T12:39:41.229Z,8.60
2018-12-21T12:42:08.691Z,8.60
2018-12-21T12:44:36.135Z,8.60
2018-12-21T12:47:03.646Z,8.70
2018-12-21T12:49:31.110Z,8.80
2018-12-21T12:51:58.563Z,8.80
2018-12-21T12:54:26.041Z,8.90
2018-12-21T12:56:53.490Z,9.00
2018-12-21T12:59:20.934Z,9.00
2018-12-21T13:01:48.385Z,9.00
2018-12-21T13:04:15.870Z,9.00
2018-12-21T13:06:43.318Z,9.10
2018-12-21T13:09:10.769Z,9.10
2018-12-21T13:11:38.208Z,9.20
2018-12-21T13:14:05.677Z,9.20
2018-12-21T13:16:33.178Z,9.20
2018-12-21T13:19:00.628Z,9.20
2018-12-21T13:21:28.069Z,9.30
2018-12-21T13:23:55.538Z,9.30
2018-12-21T13:26:22.977Z,9.30
2018-12-21T13:28:50.456Z,9.30
2018-12-21T13:31:17.907Z,9.30
2018-12-21T13:33:45.353Z,9.30
2018-12-21T13:36:12.850Z,9.30
2018-12-21T13:38:40.468Z,9.40
2018-12-21T13:41:07.923Z,9.40
2018-12-21T13:43:35.374Z,9.40
2018-12-21T13:46:02.862Z,9.50
2018-12-21T13:48:30.350Z,9.50
2018-12-21T13:50:57.804Z,9.50
2018-12-21T13:53:25.290Z,9.50
2018-12-21T13:55:52.747Z,9.50
2018-12-21T13:58:20.204Z,9.50
2018-12-21T14:00:47.701Z,9.60
2018-12-21T14:03:15.209Z,9.60
2018-12-21T14:05:42.654Z,9.60
2018-12-21T14:08:10.089Z,9.60
2018-12-21T14:10:37.550Z,9.70
2018-12-21T14:13:05.029Z,9.70
2018-12-21T14:15:32.549Z,9.70
2018-12-21T14:18:00.090Z,9.70
2018-12-21T14:20:27.565Z,9.80
2018-12-21T14:22:55.014Z,9.80
2018-12-21T14:25:28.814Z,9.70
2018-12-21T14:27:52.853Z,9.80
2018-12-21T14:30:20.305Z,9.80
2018-12-21T14:32:47.775Z,9.80
2018-12-21T14:35:15.226Z,9.80
2018-12-21T14:37:42.701Z,9.80
2018-12-21T14:40:10.145Z,9.80
2018-12-21T14:42:37.673Z,9.80
2018-12-21T14:45:05.754Z,9.90
2018-12-21T14:47:33.218Z,9.90
2018-12-21T14:50:00.675Z,10.00
2018-12-21T14:52:28.146Z,10.00
2018-12-21T14:54:55.594Z,10.00
2018-12-21T14:57:23.078Z,10.00
2018-12-21T14:59:50.641Z,10.10
2018-12-21T15:02:18.102Z,10.00
2018-12-21T15:04:45.551Z,10.00
2018-12-21T15:07:13.008Z,10.10
2018-12-21T15:09:40.474Z,10.10
2018-12-21T15:12:07.932Z,10.10
2018-12-21T15:14:35.395Z,10.10
2018-12-21T15:17:02.843Z,10.10
2018-12-21T15:19:30.314Z,10.20
2018-12-21T15:21:58.250Z,10.10
2018-12-21T15:24:26.806Z,10.10
2018-12-21T15:26:54.366Z,10.10
2018-12-21T15:29:21.806Z,10.20
2018-12-21T15:31:49.288Z,10.20
2018-12-21T15:34:16.743Z,10.20
2018-12-21T15:36:44.191Z,10.20
2018-12-21T15:39:11.768Z,10.20
2018-12-21T15:41:39.263Z,10.20
2018-12-21T15:44:06.786Z,10.20
2018-12-21T15:46:34.273Z,10.20
2018-12-21T15:49:01.810Z,10.20
2018-12-21T15:51:29.376Z,10.30
2018-12-21T15:53:56.829Z,10.30
2018-12-21T15:56:24.297Z,10.30
2018-12-21T15:58:51.817Z,10.20
2018-12-21T16:01:19.296Z,10.30
2018-12-21T16:03:46.820Z,10.30
2018-12-21T16:06:14.320Z,10.30
2018-12-21T16:08:41.783Z,10.30
2018-12-21T16:11:09.233Z,10.30
2018-12-21T16:13:36.684Z,10.30
2018-12-21T16:16:04.222Z,10.40
2018-12-21T16:18:31.806Z,10.40
2018-12-21T16:20:59.271Z,10.40
2018-12-21T16:23:26.783Z,10.40
2018-12-21T16:25:54.227Z,10.50
2018-12-21T16:28:21.687Z,10.50
2018-12-21T16:30:49.142Z,10.50
2018-12-21T16:33:16.593Z,10.60
2018-12-21T16:35:44.033Z,10.50
2018-12-21T16:38:11.485Z,10.60
2018-12-21T16:40:38.966Z,10.70
2018-12-21T16:43:06.396Z,10.70
2018-12-21T16:45:33.863Z,10.70
2018-12-21T16:48:01.309Z,10.70
2018-12-21T16:50:28.766Z,10.70
2018-12-21T16:52:56.257Z,10.70
2018-12-21T16:55:23.701Z,10.70
2018-12-21T16:57:51.147Z,10.70
2018-12-21T17:00:18.606Z,10.70
2018-12-21T17:02:46.084Z,10.70
2018-12-21T17:05:13.614Z,10.70
2018-12-21T17:07:41.059Z,10.70
2018-12-21T17:10:10.694Z,10.70
2018-12-21T17:12:38.180Z,10.70
2018-12-21T17:15:09.128Z,10.80
2018-12-21T17:17:36.612Z,10.80
2018-12-21T17:20:05.973Z,10.80
2018-12-21T17:22:33.426Z,10.80
2018-12-21T17:25:00.889Z,10.80
2018-12-21T17:27:28.341Z,10.80
2018-12-21T17:29:55.795Z,10.80
2018-12-21T17:32:23.240Z,10.90
2018-12-21T17:34:50.713Z,10.90
2018-12-21T17:37:18.161Z,11.00
2018-12-21T17:39:45.609Z,10.90
2018-12-21T17:42:13.058Z,11.00
2018-12-21T17:44:40.547Z,10.90
2018-12-21T17:47:08.032Z,11.00
2018-12-21T17:49:35.491Z,11.00
2018-12-21T17:52:02.938Z,11.00
2018-12-21T17:54:30.419Z,10.90
2018-12-21T17:56:57.882Z,11.00
2018-12-21T17:59:25.531Z,11.00
2018-12-21T18:01:53.121Z,11.10
2018-12-21T18:06:53.820Z,11.00
2018-12-21T18:09:21.347Z,11.10
2018-12-21T18:11:56.987Z,11.10
2018-12-21T18:14:18.265Z,11.10
2018-12-21T18:16:45.731Z,11.10
2018-12-21T18:19:13.173Z,11.10
2018-12-21T18:21:44.511Z,11.10
2018-12-21T18:24:12.000Z,11.20
2018-12-21T18:26:39.460Z,11.10
2018-12-21T18:29:06.934Z,11.20
2018-12-21T18:31:41.007Z,11.20
2018-12-21T18:34:10.244Z,11.20
2018-12-21T18:36:38.608Z,11.20
2018-12-21T18:39:06.358Z,11.20
2018-12-21T18:41:33.805Z,11.20
2018-12-21T18:44:01.278Z,11.20
2018-12-21T18:46:28.769Z,11.20
2018-12-21T18:48:56.261Z,11.20
2018-12-21T18:51:23.719Z,11.20
2018-12-21T18:53:51.170Z,11.20
2018-12-21T18:56:20.701Z,11.20
2018-12-21T18:58:49.336Z,11.20
2018-12-21T19:01:17.017Z,11.20
2018-12-21T19:03:44.477Z,11.20
2018-12-21T19:06:11.926Z,11.20
2018-12-21T19:08:39.397Z,11.20
2018-12-21T19:11:06.904Z,11.20
2018-12-21T19:13:34.365Z,11.20
2018-12-21T19:16:01.829Z,11.20
2018-12-21T19:18:29.289Z,11.10
2018-12-21T19:20:56.768Z,11.20
2018-12-21T19:23:24.235Z,11.20
2018-12-21T19:25:51.748Z,11.20
2018-12-21T19:28:19.202Z,11.20
2018-12-21T19:30:46.670Z,11.20
2018-12-21T19:33:14.124Z,11.20
2018-12-21T19:35:41.590Z,11.30
2018-12-21T19:38:09.092Z,11.30
2018-12-21T19:40:36.549Z,11.20
2018-12-21T19:43:04.084Z,11.30
2018-12-21T19:45:31.609Z,11.20
2018-12-21T19:47:59.086Z,11.30
2018-12-21T19:50:26.638Z,11.30
2018-12-21T19:52:54.121Z,11.30
2018-12-21T19:55:25.433Z,11.30
2018-12-21T19:57:52.884Z,11.30
2018-12-21T20:00:20.383Z,11.30
2018-12-21T20:02:47.876Z,11.30
2018-12-21T20:05:15.333Z,11.40
2018-12-21T20:07:42.789Z,11.30
2018-12-21T20:10:10.961Z,11.30
2018-12-21T20:12:38.435Z,11.40
2018-12-21T20:15:07.320Z,11.30
2018-12-21T20:17:34.777Z,11.40
2018-12-21T20:20:02.309Z,11.40
2018-12-21T20:22:29.830Z,11.40
2018-12-21T20:24:57.295Z,11.40
2018-12-21T20:27:24.735Z,11.40
2018-12-21T20:29:52.212Z,11.40
2018-12-21T20:32:21.895Z,11.30
2018-12-21T20:34:49.120Z,11.40
2018-12-21T20:37:16.629Z,11.40
2018-12-21T20:39:44.122Z,11.40
2018-12-21T20:42:11.640Z,11.40
2018-12-21T20:44:39.097Z,11.30
2018-12-21T20:47:06.560Z,11.30
2018-12-21T20:49:34.008Z,11.40
2018-12-21T20:52:01.464Z,11.40
2018-12-21T20:54:28.988Z,11.40
2018-12-21T20:56:56.530Z,11.40
2018-12-21T20:59:24.009Z,11.40
2018-12-21T21:01:51.509Z,11.30
2018-12-21T21:04:19.004Z,11.30
2018-12-21T21:06:46.458Z,11.30
2018-12-21T21:09:13.916Z,11.30
2018-12-21T21:11:41.426Z,11.30
2018-12-21T21:14:08.891Z,11.30
2018-12-21T21:16:36.380Z,11.30
2018-12-21T21:19:03.943Z,11.30
2018-12-21T21:21:31.396Z,11.30
2018-12-21T21:23:58.868Z,11.20
2018-12-21T21:26:26.319Z,11.20
2018-12-21T21:28:53.764Z,11.20
2018-12-21T21:31:21.217Z,11.20
2018-12-21T21:33:48.712Z,11.20
2018-12-21T21:36:16.165Z,11.10
2018-12-21T21:38:43.646Z,11.10
2018-12-21T21:41:11.137Z,11.10
2018-12-21T21:43:38.593Z,11.10
2018-12-21T21:46:06.088Z,11.10
2018-12-21T21:48:33.524Z,11.10
2018-12-21T21:51:00.974Z,11.00
2018-12-21T21:53:28.440Z,11.10
2018-12-21T21:55:55.926Z,11.00
2018-12-21T21:58:23.381Z,11.00
2018-12-21T22:00:50.866Z,11.00
2018-12-21T22:03:18.343Z,11.00
2018-12-21T22:05:45.791Z,11.00
2018-12-21T22:08:13.240Z,10.90
2018-12-21T22:10:40.693Z,11.00
2018-12-21T22:13:08.141Z,11.00
2018-12-21T22:15:35.589Z,11.00
2018-12-21T22:18:03.114Z,10.90
2018-12-21T22:20:30.651Z,10.90
2018-12-21T22:22:58.113Z,11.00
2018-12-21T22:25:25.564Z,10.90
2018-12-21T22:27:53.065Z,10.90
2018-12-21T22:30:20.513Z,10.90
2018-12-21T22:32:47.985Z,10.90
2018-12-21T22:35:15.446Z,11.00
2018-12-21T22:37:42.929Z,10.90
2018-12-21T22:40:10.419Z,11.00
2018-12-21T22:42:37.906Z,11.00
2018-12-21T22:45:05.940Z,11.00
2018-12-21T22:47:33.398Z,11.00
2018-12-21T22:50:00.855Z,10.90
2018-12-21T22:52:28.302Z,11.00
2018-12-21T22:54:55.790Z,10.90
2018-12-21T22:57:23.244Z,11.00
2018-12-21T22:59:50.692Z,11.00
2018-12-21T23:02:18.138Z,11.00
2018-12-21T23:04:45.681Z,11.00
2018-12-21T23:07:13.112Z,10.90
2018-12-21T23:09:40.585Z,10.80
2018-12-21T23:12:08.037Z,10.80
2018-12-21T23:14:35.573Z,10.90
2018-12-21T23:17:03.026Z,10.80
2018-12-21T23:19:30.504Z,10.80
2018-12-21T23:21:58.023Z,10.90
2018-12-21T23:24:25.559Z,10.80
2018-12-21T23:26:53.073Z,10.90
2018-12-21T23:29:20.555Z,10.80
2018-12-21T23:31:48.010Z,10.80
2018-12-21T23:34:15.454Z,10.80
2018-12-21T23:36:42.922Z,10.70
2018-12-21T23:39:10.372Z,10.70
2018-12-21T23:41:37.852Z,10.70
2018-12-21T23:44:05.314Z,10.70
2018-12-21T23:46:32.773Z,10.70
2018-12-21T23:49:00.231Z,10.70
2018-12-21T23:51:27.704Z,10.60
2018-12-21T23:53:55.163Z,10.60
2018-12-21T23:56:22.622Z,10.60
2018-12-21T23:58:50.078Z,10.60
